Latest Weather Observations for Trepell

IDQ60801

Issued at 10:05 pm EST Friday 29 August 2014 (issued every 30 minutes, with the page automatically refreshed every 10 minutes)

About weather observations | Map of weather stations | Latest weather observations for QLD | Other Formats
Station Details ID: 037036 Name: TREPELL AIRPORT Lat: -21.84 Lon: 140.89 Height: 266.2 m
Data from the previous 72 hours. | See also: Recent months at Trepell
Date/Time
EST
Temp
°C
App
Temp
°C
Dew
Point
Rel
Hum
%
Delta-T
°C
Wind Press
QNH
hPa
Press
MSL
hPa
Rain
since 9 am
mm
Dir
 
Spd
km/h
Gust
km/h
Spd
kts
Gust
kts
29/10:00pm 16.1 10.8 -6.8 20 8.5 SW 13 15 7 8 1019.4 1018.8 0.0
29/09:30pm 17.0 12.4 -7.5 18 9.1 SSW 9 9 5 5 1019.3 1018.7 0.0
29/09:00pm 17.9 12.7 -6.7 18 9.4 SSW 13 13 7 7 1019.1 1018.5 0.0
29/08:30pm 18.0 13.0 -8.2 16 9.7 SSW 11 13 6 7 1019.0 1018.4 0.0
29/08:00pm 19.3 14.3 -7.9 15 10.3 S 11 13 6 7 1018.7 1018.1 0.0
29/07:30pm 20.7 15.7 -7.7 14 11.0 S 11 15 6 8 1018.4 1017.8 0.0
29/07:00pm 22.5 17.6 -7.3 13 11.8 S 11 15 6 8 1018.1 1017.4 0.0
29/06:30pm 24.3 18.3 -6.9 12 12.7 SSE 17 20 9 11 1018.0 1017.3 0.0
29/06:00pm 25.5 19.9 -6.0 12 13.2 SSE 15 20 8 11 1017.7 1017.0 0.0
29/05:30pm 26.1 21.2 -6.6 11 13.6 SE 11 22 6 12 1017.7 1017.0 0.0
29/05:00pm 26.7 21.0 -7.4 10 14.0 S 15 20 8 11 1017.6 1016.9 0.0
29/04:30pm 26.8 21.1 -7.3 10 14.1 SSW 15 20 8 11 1017.5 1016.8 0.0
29/04:00pm 26.8 20.5 -6.1 11 13.9 SSE 19 24 10 13 1017.6 1016.9 0.0
29/03:30pm 26.8 21.5 -7.3 10 14.1 ESE 13 22 7 12 1017.8 1017.1 0.0
29/03:00pm 26.5 20.2 -6.3 11 13.8 S 19 24 10 13 1018.1 1017.4 0.0
29/02:30pm 26.3 21.1 -6.5 11 13.7 SSE 13 22 7 12 1018.2 1017.6 0.0
29/02:00pm 26.5 21.0 -5.2 12 13.6 SE 15 26 8 14 1018.6 1018.0 0.0
29/01:30pm 26.3 19.9 -5.3 12 13.5 SSE 20 28 11 15 1019.2 1018.6 0.0
29/01:00pm 25.1 20.0 -5.2 13 12.8 E 13 24 7 13 1019.7 1019.1 0.0
29/12:30pm 24.3 19.6 -4.9 14 12.3 SSE 11 19 6 10 1020.5 1019.8 0.0
29/12:00pm 24.0 18.2 -5.1 14 12.2 SE 17 24 9 13 1021.2 1020.5 0.0
29/11:30am 23.9 17.8 -4.3 15 12.0 SSE 19 24 10 13 1021.8 1021.2 0.0
29/11:00am 23.2 16.1 -4.8 15 11.7 ESE 24 37 13 20 1022.1 1021.5 0.0
29/10:30am 22.8 14.9 -4.3 16 11.4 ESE 28 35 15 19 1022.4 1021.8 0.0
29/10:00am 21.7 14.3 -3.6 18 10.7 ESE 26 35 14 19 1022.7 1022.1 0.0
29/09:30am 20.3 11.8 -3.4 20 9.9 ESE 32 37 17 20 1022.6 1022.0 0.0
29/09:00am 18.5 10.8 -3.0 23 8.9 ESE 28 35 15 19 1022.5 1021.9 0.0
29/08:30am 16.4 10.9 -2.1 28 7.7 SSE 17 20 9 11 1022.4 1021.8 0.0
29/08:00am 12.9 9.3 -3.4 32 6.3 SW 6 7 3 4 1022.2 1021.6 0.0
29/07:30am 10.9 7.3 -3.9 35 5.6 SSW 6 7 3 4 1021.9 1021.3 0.0
29/07:00am 9.5 4.9 -4.4 37 5.1 S 11 15 6 8 1021.4 1020.8 0.0
29/06:30am 9.7 5.5 -3.9 38 5.0 S 9 11 5 6 1021.3 1020.6 0.0
29/06:00am 11.3 7.6 -2.5 38 5.4 SE 7 11 4 6 1021.0 1020.3 0.0
29/05:30am 11.1 7.0 -3.0 37 5.4 SSE 9 11 5 6 1020.7 1020.0 0.0
29/05:00am 11.9 7.5 -2.3 37 5.6 SSE 11 15 6 8 1020.3 1019.6 0.0
29/04:30am 13.0 8.3 -2.1 35 6.1 SSE 13 17 7 9 1020.1 1019.4 0.0
29/04:00am 13.6 8.5 -1.6 35 6.2 SSE 15 19 8 10 1020.1 1019.4 0.0
29/03:30am 13.8 8.7 -1.8 34 6.4 SSE 15 19 8 10 1020.1 1019.4 0.0
29/03:00am 14.5 9.1 -1.2 34 6.5 SSE 17 20 9 11 1020.3 1019.6 0.0
29/02:30am 15.1 9.8 -0.6 34 6.6 SSE 17 24 9 13 1020.3 1019.6 0.0
29/02:00am 12.9 8.4 -3.4 32 6.3 SSE 11 15 6 8 1020.5 1019.8 0.0
29/01:30am 15.3 10.7 -1.3 32 6.9 SSE 13 17 7 9 1020.5 1019.8 0.0
29/01:00am 15.8 10.8 -1.3 31 7.2 SSE 15 19 8 10 1020.6 1019.9 0.0
29/12:30am 16.1 10.7 -1.0 31 7.2 SSE 17 19 9 10 1020.7 1020.0 0.0
29/12:00am 16.6 11.6 -1.5 29 7.6 SSE 15 19 8 10 1020.8 1020.1 0.0
 
Date/Time
EST
Temp
°C
App
Temp
°C
Dew
Point
Rel
Hum
%
Delta-T
°C
Wind Press
QNH
hPa
Press
MSL
hPa
Rain
since 9 am
mm
Dir
 
Spd
km/h
Gust
km/h
Spd
kts
Gust
kts
28/11:30pm 16.7 11.6 -1.9 28 7.8 SSE 15 17 8 9 1020.9 1020.2 0.0
28/11:00pm 17.1 11.6 -2.0 27 8.0 SSE 17 20 9 11 1021.0 1020.3 0.0
28/10:30pm 17.1 12.1 -1.5 28 7.9 SSE 15 17 8 9 1021.1 1020.4 0.0
28/10:00pm 17.1 12.4 -1.5 28 7.8 S 13 15 7 8 1021.1 1020.4 0.0
28/09:30pm 17.7 13.4 -1.5 27 8.2 S 11 13 6 7 1021.0 1020.3 0.0
28/09:00pm 18.7 14.0 -1.7 25 8.7 S 13 15 7 8 1020.9 1020.2 0.0
28/08:30pm 19.5 14.4 -1.6 24 9.1 SSE 15 17 8 9 1020.7 1020.0 0.0
28/08:00pm 21.3 15.7 -0.1 24 9.6 SSE 19 24 10 13 1020.4 1019.7 0.0
28/07:30pm 22.0 16.2 -0.1 23 10.0 SE 20 22 11 12 1019.9 1019.2 0.0
28/07:00pm 22.7 16.8 -0.7 21 10.5 SE 20 24 11 13 1019.4 1018.8 0.0
28/06:30pm 23.6 17.7 -0.6 20 11.0 SE 20 26 11 14 1019.2 1018.6 0.0
28/06:00pm 24.9 18.6 -1.0 18 11.8 ESE 22 30 12 16 1018.9 1018.3 0.0
28/05:30pm 25.5 18.3 -2.1 16 12.4 SE 26 32 14 17 1018.7 1018.1 0.0
28/05:00pm 26.1 20.2 -0.8 17 12.4 SE 20 30 11 16 1018.4 1017.8 0.0
28/04:30pm 26.6 19.5 -1.3 16 12.9 SE 26 35 14 19 1018.1 1017.4 0.0
28/04:00pm 26.8 19.2 -2.0 15 13.1 SE 28 33 15 18 1018.1 1017.4 0.0
28/03:30pm 26.4 19.7 -1.4 16 12.8 SE 24 35 13 19 1018.1 1017.4 0.0
28/03:00pm 26.2 19.1 -1.6 16 12.7 SE 26 39 14 21 1018.4 1017.8 0.0
28/02:30pm 27.1 19.4 0.0 17 12.8 SE 30 39 16 21 1018.8 1018.2 0.0
28/02:00pm 26.7 21.0 0.4 18 12.5 SSE 20 33 11 18 1019.2 1018.6 0.0
28/01:30pm 25.5 19.7 0.2 19 11.9 ESE 20 26 11 14 1020.0 1019.3 0.0
28/01:00pm 24.5 18.0 0.1 20 11.3 SE 24 37 13 20 1020.6 1019.9 0.0
28/12:30pm 23.4 17.7 0.5 22 10.6 SE 20 30 11 16 1021.1 1020.4 0.0
28/12:00pm 23.4 18.1 1.7 24 10.3 ESE 19 28 10 15 1021.6 1021.0 0.0
28/11:30am 23.1 17.4 2.6 26 9.9 ESE 22 39 12 21 1021.9 1021.3 0.0
28/11:00am 22.5 16.8 2.6 27 9.5 ESE 22 32 12 17 1022.3 1021.7 0.0
28/10:30am 22.2 15.3 2.8 28 9.3 E 28 39 15 21 1022.6 1022.0 0.0
28/10:00am 20.9 13.9 2.2 29 8.8 ESE 28 33 15 18 1022.7 1022.1 0.0
28/09:30am 19.6 13.3 1.6 30 8.3 ESE 24 30 13 16 1022.7 1022.1 0.0
28/09:00am 18.0 11.6 1.1 32 7.6 ESE 24 33 13 18 1022.6 1022.0 0.0
28/08:30am 15.3 11.1 -0.9 33 6.8 SSE 11 17 6 9 1022.4 1021.8 0.0
28/08:00am 12.3 8.8 -3.1 34 6.0 SSW 6 7 3 4 1022.1 1021.5 0.0
28/07:30am 10.4 6.2 -4.0 36 5.4 SW 9 9 5 5 1021.6 1021.0 0.0
28/07:00am 8.7 4.0 -5.2 37 4.9 SW 11 13 6 7 1021.2 1020.5 0.0
28/06:30am 9.4 5.1 -4.9 36 5.2 SW 9 11 5 6 1020.9 1020.2 0.0
28/06:00am 9.7 5.3 -5.4 34 5.4 SW 9 11 5 6 1020.5 1019.8 0.0
28/05:30am 10.0 6.0 -5.5 33 5.6 WSW 7 9 4 5 1020.2 1019.5 0.0
28/05:00am 9.3 4.8 -6.5 32 5.5 SW 9 9 5 5 1020.1 1019.4 0.0
28/04:30am 9.7 5.3 -6.2 32 5.6 SW 9 9 5 5 1020.0 1019.3 0.0
28/04:00am 10.1 5.7 -5.8 32 5.7 SW 9 11 5 6 1019.9 1019.2 0.0
28/03:30am 10.6 6.6 -5.8 31 5.9 WSW 7 9 4 5 1020.0 1019.3 0.0
28/03:00am 10.6 6.5 -6.7 29 6.1 W 7 9 4 5 1020.2 1019.5 0.0
28/02:30am 10.7 6.2 -7.0 28 6.2 WSW 9 9 5 5 1020.3 1019.6 0.0
28/02:00am 11.7 7.8 -6.2 28 6.4 SW 6 7 3 4 1020.6 1019.9 0.0
28/01:30am 12.7 8.9 -5.8 27 6.8 W 6 7 3 4 1020.8 1020.1 0.0
28/01:00am 12.0 7.8 -7.4 25 6.8 SSW 7 9 4 5 1020.8 1020.1 0.0
28/12:30am 12.2 7.7 -7.2 25 6.9 SW 9 13 5 7 1020.9 1020.2 0.0
28/12:00am 12.4 7.5 -7.6 24 7.0 SSW 11 13 6 7 1021.0 1020.3 0.0
 
Date/Time
EST
Temp
°C
App
Temp
°C
Dew
Point
Rel
Hum
%
Delta-T
°C
Wind Press
QNH
hPa
Press
MSL
hPa
Rain
since 9 am
mm
Dir
 
Spd
km/h
Gust
km/h
Spd
kts
Gust
kts
27/11:30pm 12.9 7.9 -7.7 23 7.3 SSW 11 13 6 7 1021.2 1020.5 0.0
27/11:00pm 14.1 9.6 -7.3 22 7.7 SSW 9 11 5 6 1021.3 1020.6 0.0
27/10:30pm 14.1 9.1 -7.9 21 7.9 SSW 11 11 6 6 1021.2 1020.5 0.0
27/10:00pm 14.5 9.9 -7.5 21 7.9 SSW 9 13 5 7 1021.2 1020.5 0.0
27/09:30pm 14.7 9.7 -8.0 20 8.1 SSW 11 11 6 6 1021.0 1020.3 0.0
27/09:00pm 15.4 10.8 -8.1 19 8.5 SSW 9 13 5 7 1020.8 1020.1 0.0
27/08:30pm 17.9 12.7 -6.7 18 9.4 SSE 13 17 7 9 1020.4 1019.7 0.0
27/08:00pm 18.9 13.3 -5.9 18 9.7 SSE 15 17 8 9 1020.0 1019.3 0.0
27/07:30pm 19.8 13.9 -5.2 18 10.1 SSE 17 19 9 10 1019.6 1019.0 0.0
27/07:00pm 20.8 14.9 -5.9 16 10.7 SSE 17 22 9 12 1019.2 1018.6 0.0
27/06:30pm 22.0 15.6 -6.7 14 11.5 SSE 19 24 10 13 1018.9 1018.3 0.0
27/06:00pm 23.4 16.4 -7.6 12 12.3 SSE 22 26 12 14 1018.5 1017.9 0.0
27/05:30pm 24.2 17.3 -5.9 13 12.5 S 22 32 12 17 1018.3 1017.7 0.0
27/05:00pm 24.5 17.6 -5.7 13 12.6 S 22 35 12 19 1018.3 1017.7 0.0
27/04:30pm 25.1 18.9 -5.2 13 12.8 S 19 28 10 15 1018.2 1017.6 0.0
27/04:00pm 24.7 18.3 -4.6 14 12.5 SSE 20 30 11 16 1018.0 1017.3 0.0
27/03:30pm 25.4 19.0 -5.0 13 13.0 SSE 20 28 11 15 1018.1 1017.4 0.0
27/03:00pm 25.0 18.6 -5.3 13 12.8 S 20 32 11 17 1018.3 1017.7 0.0
27/02:30pm 24.7 18.5 -4.6 14 12.5 SE 19 32 10 17 1018.6 1018.0 0.0
27/02:00pm 23.7 17.5 -4.4 15 11.9 S 19 30 10 16 1019.0 1018.4 0.0
27/01:30pm 24.1 17.5 -3.3 16 11.9 SE 22 33 12 18 1019.2 1018.6 0.0
27/01:00pm 23.0 17.4 -2.6 18 11.1 SE 17 28 9 15 1019.9 1019.2 0.0
27/12:30pm 22.3 16.4 -2.4 19 10.8 SE 19 28 10 15 1020.4 1019.7 0.0
27/12:00pm 21.1 15.6 -2.0 21 10.0 S 17 24 9 13 1021.0 1020.3 0.0
27/11:30am 21.5 16.1 -1.1 22 10.0 SSE 17 26 9 14 1021.6 1021.0 0.0
27/11:00am 21.0 14.3 -0.9 23 9.7 SSE 24 33 13 18 1022.0 1021.4 0.0
27/10:30am 20.0 13.3 -1.2 24 9.3 SE 24 35 13 19 1022.2 1021.6 0.0
27/10:00am 19.5 13.2 -1.0 25 8.9 ESE 22 28 12 15 1022.4 1021.8 0.0
27/09:30am 17.1 11.7 -4.2 23 8.5 SE 15 20 8 11 1022.6 1022.0 0.0
27/09:00am 14.9 9.7 -6.6 22 7.9 SSE 13 17 7 9 1022.4 1021.8 0.0
27/08:30am 13.3 8.7 -8.5 21 7.6 S 9 13 5 7 1022.1 1021.5 0.0
27/08:00am 10.9 6.1 -11.1 20 7.0 SW 9 11 5 6 1021.7 1021.1 0.0
27/07:30am 8.1 3.1 -12.9 21 6.1 WSW 9 11 5 6 1021.3 1020.6 0.0
27/07:00am 6.5 1.5 -13.6 22 5.6 W 9 13 5 7 1021.0 1020.3 0.0
27/06:30am 7.2 1.8 -13.1 22 5.8 WSW 11 11 6 6 1020.6 1019.9 0.0
27/06:00am 7.4 2.1 -12.9 22 5.9 SW 11 13 6 7 1020.2 1019.5 0.0
27/05:30am 7.6 2.2 -13.3 21 6.0 SW 11 13 6 7 1019.9 1019.2 0.0
27/05:00am 7.8 2.0 -13.7 20 6.1 SW 13 13 7 7 1019.9 1019.2 0.0
27/04:30am 7.8 2.4 -14.3 19 6.2 SW 11 13 6 7 1020.0 1019.3 0.0
27/04:00am 8.7 3.7 -13.6 19 6.5 SW 9 11 5 6 1020.1 1019.4 0.0
27/03:30am 9.1 3.7 -13.9 18 6.7 SSW 11 13 6 7 1020.0 1019.3 0.0
27/03:00am 9.2 3.4 -13.8 18 6.7 SW 13 15 7 8 1020.1 1019.4 0.0
27/02:30am 9.6 3.8 -14.9 16 7.0 SSW 13 15 7 8 1020.2 1019.5 0.0
27/02:00am 10.1 4.3 -14.5 16 7.1 SSW 13 15 7 8 1020.3 1019.6 0.0
27/01:30am 9.9 4.4 -15.5 15 7.2 SSW 11 13 6 7 1020.4 1019.7 0.0
27/01:00am 9.8 4.3 -15.6 15 7.1 SSW 11 13 6 7 1020.4 1019.7 0.0
27/12:30am 10.6 5.1 -15.8 14 7.5 SSW 11 11 6 6 1020.6 1019.9 0.0
27/12:00am 11.1 5.6 -15.4 14 7.6 SSW 11 13 6 7 1020.8 1020.1 0.0
 
Date/Time
EST
Temp
°C
App
Temp
°C
Dew
Point
Rel
Hum
%
Delta-T
°C
Wind Press
QNH
hPa
Press
MSL
hPa
Rain
since 9 am
mm
Dir
 
Spd
km/h
Gust
km/h
Spd
kts
Gust
kts
26/11:30pm 12.3 6.4 -15.3 13 8.2 SSW 13 17 7 9 1021.0 1020.3 0.0
26/11:00pm 12.7 6.9 -15.0 13 8.3 SSW 13 15 7 8 1021.1 1020.4 0.0
26/10:30pm 13.0 7.1 -15.7 12 8.5 SSW 13 15 7 8 1021.1 1020.4 0.0

Other Formats:

Comma delimited format used in spreadsheet applications
http://www.bom.gov.au/fwo/IDQ60801/IDQ60801.94338.axf

JavaScript Object Notation format (JSON) in row-major order
http://www.bom.gov.au/fwo/IDQ60801/IDQ60801.94338.json